Time;durP1;ratioP1;P1;durP2;ratioP2;P2;SDS_P1;SDS_P2;PMS_P1;PMS_P2;Temp;Humidity;BMP_temperature;BMP_pressure;BME280_temperature;BME280_humidity;BME280_pressure;Samples;Min_cycle;Max_cycle;Signal;HPM_P1;HPM_P2
2024/01/16 00:00:15;;;;;;;77.05;47.60;;;5.80;93.30;;;;;;5004792;28;20068;-81
2024/01/16 00:02:44;;;;;;;76.10;46.38;;;5.80;93.30;;;;;;5004176;28;20026;-80
2024/01/16 00:05:10;;;;;;;69.35;43.95;;;5.80;93.20;;;;;;5006961;28;20042;-79
2024/01/16 00:07:39;;;;;;;72.75;43.22;;;5.80;93.20;;;;;;5029410;28;20159;-79
2024/01/16 00:10:07;;;;;;;68.28;42.33;;;5.80;93.20;;;;;;5027312;28;20040;-79
2024/01/16 00:12:33;;;;;;;70.07;43.90;;;5.70;93.20;;;;;;5021543;28;20028;-79
2024/01/16 00:14:59;;;;;;;76.72;46.75;;;5.70;93.30;;;;;;5000265;28;20021;-79
2024/01/16 00:17:24;;;;;;;71.90;44.38;;;5.70;93.30;;;;;;5022086;28;20112;-80
2024/01/16 00:19:50;;;;;;;76.65;46.40;;;5.70;93.30;;;;;;5019007;28;20022;-79
2024/01/16 00:22:16;;;;;;;75.28;42.88;;;5.80;93.30;;;;;;5020582;28;20026;-79
2024/01/16 00:24:41;;;;;;;78.00;48.00;;;5.80;93.20;;;;;;5016550;28;20033;-79
2024/01/16 00:27:07;;;;;;;75.18;45.22;;;5.80;93.20;;;;;;5029419;28;20041;-79
2024/01/16 00:29:33;;;;;;;73.15;45.28;;;5.80;93.20;;;;;;5018527;28;20480;-79
2024/01/16 00:31:58;;;;;;;70.15;43.45;;;5.80;93.20;;;;;;5001451;28;20036;-79
2024/01/16 00:34:24;;;;;;;58.85;36.85;;;5.80;93.10;;;;;;5019731;28;20041;-79
2024/01/16 00:36:50;;;;;;;68.38;41.88;;;5.80;93.00;;;;;;5028543;28;20029;-79
2024/01/16 00:39:15;;;;;;;68.00;44.05;;;5.80;93.10;;;;;;5024448;28;20455;-79
2024/01/16 00:41:41;;;;;;;70.10;41.42;;;5.70;93.10;;;;;;5015698;28;20061;-79
2024/01/16 00:44:07;;;;;;;69.47;42.22;;;5.80;93.10;;;;;;5029716;28;20048;-79
2024/01/16 00:46:33;;;;;;;67.32;41.42;;;5.70;93.10;;;;;;5018439;28;20030;-79
2024/01/16 00:48:59;;;;;;;59.88;39.42;;;5.80;93.10;;;;;;5024990;28;20124;-79
2024/01/16 00:51:25;;;;;;;60.42;39.35;;;5.80;93.10;;;;;;5019603;28;20038;-80
2024/01/16 00:53:51;;;;;;;64.80;39.55;;;5.80;93.10;;;;;;5026279;28;20472;-80
2024/01/16 00:56:16;;;;;;;56.90;35.55;;;5.80;93.00;;;;;;5003137;28;20044;-79
2024/01/16 00:58:42;;;;;;;62.22;37.88;;;5.80;92.90;;;;;;5017992;28;20414;-80
2024/01/16 01:01:08;;;;;;;56.70;36.08;;;5.80;92.80;;;;;;4998414;28;20555;-79
2024/01/16 01:03:33;;;;;;;55.47;34.35;;;5.80;92.70;;;;;;5019010;28;20038;-80
2024/01/16 01:06:00;;;;;;;62.95;38.58;;;5.80;92.70;;;;;;5020253;28;20084;-80
2024/01/16 01:08:26;;;;;;;60.28;37.38;;;5.80;92.80;;;;;;5026601;28;20483;-79
2024/01/16 01:10:52;;;;;;;60.05;38.40;;;5.80;92.80;;;;;;5014690;28;20093;-79
2024/01/16 01:13:18;;;;;;;65.50;38.20;;;5.80;92.70;;;;;;5017166;28;20096;-80
2024/01/16 01:15:43;;;;;;;59.55;37.33;;;5.80;92.60;;;;;;5004552;28;20030;-80
2024/01/16 01:18:09;;;;;;;57.25;35.95;;;5.80;92.50;;;;;;5013311;28;20103;-80
2024/01/16 01:20:34;;;;;;;63.35;41.15;;;5.80;92.50;;;;;;5013020;28;20030;-80
2024/01/16 01:23:00;;;;;;;74.63;45.25;;;5.80;92.40;;;;;;5013330;28;20042;-80
2024/01/16 01:25:26;;;;;;;52.50;34.80;;;5.60;92.50;;;;;;5021279;28;20395;-80
2024/01/16 01:27:52;;;;;;;56.78;35.60;;;5.40;92.70;;;;;;5029500;28;20462;-80
2024/01/16 01:30:18;;;;;;;51.13;34.78;;;5.40;93.00;;;;;;5028669;28;20054;-80
2024/01/16 01:32:44;;;;;;;78.82;45.75;;;5.30;92.90;;;;;;5030620;28;20069;-79
2024/01/16 01:35:11;;;;;;;62.22;39.72;;;5.30;92.90;;;;;;5019548;28;20018;-79
2024/01/16 01:37:37;;;;;;;57.33;33.60;;;5.20;93.00;;;;;;5017167;28;20038;-79
2024/01/16 01:40:03;;;;;;;60.70;40.50;;;5.20;93.10;;;;;;5025238;28;20364;-79
2024/01/16 01:42:29;;;;;;;64.70;41.47;;;5.20;93.10;;;;;;5023019;28;20037;-82
2024/01/16 01:44:55;;;;;;;68.68;43.70;;;5.20;93.10;;;;;;5021231;28;20075;-82
2024/01/16 01:47:21;;;;;;;78.07;46.97;;;5.30;93.20;;;;;;5022751;28;20029;-82
2024/01/16 01:49:47;;;;;;;53.03;34.15;;;5.20;93.20;;;;;;5023979;28;20037;-82
2024/01/16 01:52:13;;;;;;;66.90;39.70;;;5.10;93.30;;;;;;5027386;28;20021;-82
2024/01/16 01:54:41;;;;;;;68.75;40.15;;;5.20;93.30;;;;;;5018424;28;20037;-82
2024/01/16 01:57:08;;;;;;;69.63;43.33;;;5.20;93.30;;;;;;5023774;28;20038;-82
2024/01/16 01:59:34;;;;;;;61.75;39.67;;;5.30;93.30;;;;;;5018777;28;20061;-81
2024/01/16 02:02:00;;;;;;;62.70;39.53;;;5.30;93.20;;;;;;5026144;28;20036;-81
2024/01/16 02:04:27;;;;;;;60.88;39.25;;;5.30;93.20;;;;;;5029482;28;20035;-81
2024/01/16 02:06:53;;;;;;;62.15;39.95;;;5.40;93.20;;;;;;5024643;28;20056;-82
2024/01/16 02:09:20;;;;;;;61.88;37.90;;;5.40;93.10;;;;;;5026741;28;20073;-82
2024/01/16 02:11:45;;;;;;;57.53;36.63;;;5.50;93.10;;;;;;5025312;28;20025;-81
2024/01/16 02:14:11;;;;;;;61.45;34.88;;;5.50;93.00;;;;;;5003436;28;20029;-81
2024/01/16 02:16:39;;;;;;;53.28;33.22;;;5.50;93.00;;;;;;5017129;28;20169;-80
2024/01/16 02:19:06;;;;;;;45.95;29.23;;;5.50;93.10;;;;;;5022203;28;20065;-80
2024/01/16 02:21:54;;;;;;;71.20;41.08;;;5.50;92.70;;;;;;5004786;28;20200;-80
2024/01/16 02:24:20;;;;;;;57.17;35.28;;;5.40;92.70;;;;;;5002571;28;20090;-80
2024/01/16 02:26:46;;;;;;;46.80;28.55;;;5.40;92.70;;;;;;5027074;28;20463;-80
2024/01/16 02:29:12;;;;;;;57.25;34.58;;;5.30;92.80;;;;;;5027338;28;20070;-80
2024/01/16 02:31:37;;;;;;;56.13;35.20;;;5.20;92.90;;;;;;5025055;28;20104;-80
2024/01/16 02:34:06;;;;;;;62.63;40.00;;;5.20;92.90;;;;;;5028046;28;20040;-80
2024/01/16 02:36:33;;;;;;;56.83;37.20;;;5.20;92.90;;;;;;5024056;28;20041;-80
2024/01/16 02:38:59;;;;;;;62.72;37.08;;;5.20;92.80;;;;;;5023978;28;20029;-80
2024/01/16 02:41:25;;;;;;;61.72;37.78;;;5.20;92.90;;;;;;5024367;28;20420;-80
2024/01/16 02:43:50;;;;;;;54.33;35.67;;;5.10;92.90;;;;;;5023037;28;20081;-80
2024/01/16 02:46:17;;;;;;;46.95;31.38;;;5.10;93.00;;;;;;5027057;28;20055;-80
2024/01/16 02:48:43;;;;;;;59.47;37.78;;;5.10;93.00;;;;;;5020555;28;20052;-80
2024/01/16 02:51:09;;;;;;;46.20;29.08;;;5.10;93.00;;;;;;5027995;28;20376;-81
2024/01/16 02:53:35;;;;;;;51.08;32.58;;;5.00;93.00;;;;;;5018069;28;20536;-81
2024/01/16 02:56:01;;;;;;;60.05;36.47;;;5.00;93.10;;;;;;5023118;28;20105;-81
2024/01/16 02:58:27;;;;;;;48.15;29.17;;;5.00;93.10;;;;;;5031327;28;20064;-81
2024/01/16 03:00:53;;;;;;;64.07;37.28;;;5.00;93.00;;;;;;4999784;28;20046;-80
2024/01/16 03:03:19;;;;;;;57.65;35.80;;;5.00;93.10;;;;;;5010419;28;20041;-81
2024/01/16 03:05:45;;;;;;;53.53;34.00;;;5.10;93.10;;;;;;5023151;28;20025;-81
2024/01/16 03:08:10;;;;;;;63.75;41.58;;;5.10;93.00;;;;;;5023410;28;20040;-81
2024/01/16 03:10:36;;;;;;;50.33;30.65;;;5.10;92.80;;;;;;5030628;28;20278;-81
2024/01/16 03:13:02;;;;;;;69.70;45.45;;;5.10;92.70;;;;;;5024330;28;20410;-82
2024/01/16 03:15:30;;;;;;;58.38;36.85;;;5.00;92.80;;;;;;5024837;28;20029;-81
2024/01/16 03:17:56;;;;;;;56.83;36.08;;;5.00;92.90;;;;;;5020172;28;20029;-81
2024/01/16 03:20:23;;;;;;;54.70;35.13;;;5.00;92.90;;;;;;5021054;28;20018;-81
2024/01/16 03:22:49;;;;;;;60.55;37.20;;;5.00;92.80;;;;;;5030987;28;20025;-81
2024/01/16 03:25:15;;;;;;;64.55;40.55;;;5.00;92.80;;;;;;5007412;28;20087;-82
2024/01/16 03:27:41;;;;;;;63.75;41.78;;;5.00;92.90;;;;;;5018728;28;20026;-82
2024/01/16 03:30:08;;;;;;;65.35;41.17;;;4.90;92.90;;;;;;5015429;28;20085;-82
2024/01/16 03:32:36;;;;;;;58.72;35.97;;;4.90;92.90;;;;;;5026339;28;20022;-81
2024/01/16 03:35:02;;;;;;;59.50;37.67;;;4.80;92.90;;;;;;5027460;28;20387;-82
2024/01/16 03:37:28;;;;;;;60.92;37.10;;;4.70;93.00;;;;;;5003762;28;20430;-82
2024/01/16 03:39:54;;;;;;;62.72;38.90;;;4.70;93.10;;;;;;5017915;28;20026;-82
2024/01/16 03:42:20;;;;;;;60.28;37.15;;;4.70;93.30;;;;;;5008867;28;20037;-82
2024/01/16 03:44:46;;;;;;;53.10;32.50;;;4.70;93.00;;;;;;5018815;28;21005;-82
2024/01/16 03:47:12;;;;;;;50.90;32.83;;;4.70;93.10;;;;;;5021386;28;20033;-81
2024/01/16 03:49:38;;;;;;;53.08;33.88;;;4.60;93.20;;;;;;5021678;28;20029;-81
2024/01/16 03:52:04;;;;;;;71.20;43.55;;;4.60;93.30;;;;;;5020436;28;20025;-81
2024/01/16 03:54:30;;;;;;;92.22;54.60;;;4.50;93.30;;;;;;5015410;28;20030;-81
2024/01/16 03:56:56;;;;;;;88.00;52.05;;;4.40;93.40;;;;;;5006024;28;20065;-83
2024/01/16 03:59:22;;;;;;;75.25;45.78;;;4.30;93.70;;;;;;5024934;28;20046;-82
2024/01/16 04:01:48;;;;;;;65.72;40.10;;;4.10;93.90;;;;;;5020200;28;20030;-82
2024/01/16 04:04:15;;;;;;;67.68;41.95;;;4.10;94.10;;;;;;5015227;28;20030;-81
2024/01/16 04:06:42;;;;;;;66.30;39.45;;;4.20;93.90;;;;;;5025057;28;20057;-82
2024/01/16 04:09:08;;;;;;;61.05;39.42;;;4.20;93.80;;;;;;5018905;28;20021;-82
2024/01/16 04:11:34;;;;;;;61.53;38.65;;;4.30;93.70;;;;;;5001867;28;20045;-82
2024/01/16 04:14:00;;;;;;;59.78;37.88;;;4.40;93.60;;;;;;5022368;28;20025;-82
2024/01/16 04:16:26;;;;;;;63.28;40.45;;;4.40;93.60;;;;;;5022055;28;20036;-82
2024/01/16 04:18:52;;;;;;;56.10;36.58;;;4.50;93.50;;;;;;5016462;28;20404;-82
2024/01/16 04:21:18;;;;;;;65.40;39.47;;;4.40;93.50;;;;;;5028406;28;20033;-82
2024/01/16 04:23:44;;;;;;;50.92;33.95;;;4.40;93.50;;;;;;5025753;28;20021;-82
2024/01/16 04:26:10;;;;;;;65.50;42.20;;;4.40;93.50;;;;;;5024998;28;20037;-82
2024/01/16 04:28:39;;;;;;;42.30;27.23;;;4.40;93.50;;;;;;5015489;28;20180;-82
2024/01/16 04:31:05;;;;;;;47.63;30.17;;;4.40;93.50;;;;;;5027078;28;20026;-82
2024/01/16 04:33:31;;;;;;;41.13;27.00;;;4.40;93.50;;;;;;5021192;28;20387;-81
2024/01/16 04:35:57;;;;;;;42.78;28.73;;;4.40;93.50;;;;;;5016867;28;20041;-81
2024/01/16 04:38:23;;;;;;;48.60;31.83;;;4.50;93.40;;;;;;5024551;28;20514;-81
2024/01/16 04:40:49;;;;;;;28.30;16.98;;;4.50;93.40;;;;;;5015388;28;20157;-81
2024/01/16 04:43:15;;;;;;;35.53;21.27;;;4.50;93.40;;;;;;5022663;28;20041;-80
2024/01/16 04:45:41;;;;;;;40.00;26.70;;;4.50;93.30;;;;;;5018846;28;20045;-81
2024/01/16 04:48:08;;;;;;;34.72;20.92;;;4.60;93.30;;;;;;5027585;28;20021;-81
2024/01/16 04:50:34;;;;;;;30.98;19.60;;;4.60;93.20;;;;;;5024744;28;20478;-81
2024/01/16 04:53:01;;;;;;;33.53;19.50;;;4.60;93.10;;;;;;5019792;28;20145;-81
2024/01/16 04:55:30;;;;;;;43.42;25.90;;;4.60;93.00;;;;;;5016707;28;20100;-80
2024/01/16 04:57:56;;;;;;;31.33;19.30;;;4.50;92.90;;;;;;5014906;28;20113;-81
2024/01/16 05:00:22;;;;;;;44.80;27.27;;;4.50;93.00;;;;;;5014163;28;20081;-80
2024/01/16 05:02:48;;;;;;;26.98;19.48;;;4.60;92.80;;;;;;5016074;28;20026;-80
2024/01/16 05:05:14;;;;;;;42.78;26.05;;;4.50;92.80;;;;;;5029395;28;20033;-81
2024/01/16 05:07:41;;;;;;;26.75;16.67;;;4.50;92.60;;;;;;5025591;28;20415;-81
2024/01/16 05:10:09;;;;;;;25.17;17.08;;;4.50;92.80;;;;;;5024732;28;20044;-81
2024/01/16 05:12:35;;;;;;;26.02;17.05;;;4.60;92.80;;;;;;5016343;28;20057;-81
2024/01/16 05:15:00;;;;;;;24.75;15.55;;;4.70;92.80;;;;;;5002520;28;20065;-81
2024/01/16 05:17:26;;;;;;;25.08;15.77;;;4.70;92.70;;;;;;5023007;28;20042;-81
2024/01/16 05:19:52;;;;;;;24.88;16.27;;;4.80;92.60;;;;;;5029860;28;20036;-82
2024/01/16 05:22:17;;;;;;;22.90;15.15;;;4.90;92.50;;;;;;5006386;28;20026;-82
2024/01/16 05:24:43;;;;;;;23.98;14.90;;;5.00;92.40;;;;;;4998649;28;20026;-82
2024/01/16 05:27:09;;;;;;;28.98;16.95;;;5.00;92.30;;;;;;5023852;28;20022;-81
2024/01/16 05:29:37;;;;;;;18.52;12.00;;;5.00;92.10;;;;;;5027311;28;20025;-81
2024/01/16 05:32:04;;;;;;;21.88;14.13;;;5.00;92.10;;;;;;5028861;28;20017;-81
2024/01/16 05:34:30;;;;;;;22.00;14.10;;;5.00;92.10;;;;;;5015912;28;20042;-82
2024/01/16 05:36:55;;;;;;;19.33;13.30;;;5.00;92.10;;;;;;5023741;28;20033;-82
2024/01/16 05:39:21;;;;;;;16.73;11.20;;;5.00;91.80;;;;;;5021633;28;20033;-82
2024/01/16 05:41:47;;;;;;;17.02;11.70;;;5.00;91.90;;;;;;4988225;28;20033;-82
2024/01/16 05:44:12;;;;;;;13.27;9.48;;;5.00;91.90;;;;;;5022020;28;20069;-82
2024/01/16 05:46:38;;;;;;;17.98;11.55;;;5.00;91.80;;;;;;5018295;28;20113;-82
2024/01/16 05:49:04;;;;;;;25.23;14.32;;;5.00;91.90;;;;;;5017215;28;20034;-82
2024/01/16 05:51:29;;;;;;;21.20;14.10;;;5.00;91.80;;;;;;5016821;28;20105;-82
2024/01/16 05:53:56;;;;;;;14.95;9.95;;;5.10;91.80;;;;;;5017942;28;20034;-82
2024/01/16 05:56:22;;;;;;;14.10;8.98;;;5.10;91.70;;;;;;5022995;28;20553;-82
2024/01/16 05:58:47;;;;;;;16.38;9.55;;;5.10;91.70;;;;;;5025490;28;20041;-82
2024/01/16 06:01:13;;;;;;;11.07;7.70;;;5.10;91.60;;;;;;5027914;28;20052;-81
2024/01/16 06:03:39;;;;;;;12.57;8.45;;;5.20;91.60;;;;;;5015205;28;20029;-82
2024/01/16 06:06:07;;;;;;;10.98;7.07;;;5.20;91.60;;;;;;5025566;28;20053;-81
2024/01/16 06:08:33;;;;;;;11.50;7.75;;;5.20;91.40;;;;;;5019830;28;20053;-81
2024/01/16 06:10:58;;;;;;;13.27;7.88;;;5.20;91.40;;;;;;5020662;28;20033;-82
2024/01/16 06:13:24;;;;;;;14.23;7.63;;;5.30;91.40;;;;;;5026085;28;20048;-83
2024/01/16 06:15:50;;;;;;;10.45;7.32;;;5.30;91.30;;;;;;5024224;28;20065;-83
2024/01/16 06:18:15;;;;;;;10.30;6.80;;;5.20;90.90;;;;;;5021924;28;20038;-83
2024/01/16 06:20:41;;;;;;;11.02;7.07;;;5.20;91.20;;;;;;5019747;28;20045;-83
2024/01/16 06:23:07;;;;;;;9.68;5.90;;;5.30;91.30;;;;;;5018064;28;20480;-83
2024/01/16 06:25:32;;;;;;;10.13;6.20;;;5.20;91.00;;;;;;5023321;28;20026;-83
2024/01/16 06:27:58;;;;;;;13.88;6.80;;;5.20;91.10;;;;;;5027252;28;20026;-80
2024/01/16 06:30:24;;;;;;;14.07;7.70;;;5.30;91.20;;;;;;5017732;28;20500;-81
2024/01/16 06:32:49;;;;;;;11.05;6.78;;;5.40;91.20;;;;;;5017923;28;20022;-81
2024/01/16 06:35:18;;;;;;;8.88;5.75;;;5.30;91.10;;;;;;5004198;28;20026;-82
2024/01/16 06:37:44;;;;;;;11.98;7.57;;;5.40;91.10;;;;;;5025491;28;20113;-83
2024/01/16 06:40:10;;;;;;;8.23;5.68;;;5.30;90.80;;;;;;5029322;28;20057;-82
2024/01/16 06:42:36;;;;;;;14.10;8.70;;;5.30;90.80;;;;;;5022408;28;20075;-82
2024/01/16 06:45:03;;;;;;;12.32;7.80;;;5.30;90.80;;;;;;5019047;28;20022;-82
2024/01/16 06:47:28;;;;;;;7.63;5.32;;;5.20;90.80;;;;;;5025212;28;20040;-82
2024/01/16 06:49:54;;;;;;;10.07;5.88;;;5.20;90.90;;;;;;5024297;28;20030;-82
2024/01/16 06:52:20;;;;;;;7.53;5.30;;;5.30;91.00;;;;;;5027962;28;20112;-82
2024/01/16 06:54:45;;;;;;;9.27;5.90;;;5.30;91.00;;;;;;5018991;28;20085;-82
2024/01/16 06:57:11;;;;;;;9.93;5.63;;;5.30;91.00;;;;;;5025918;28;20480;-81
2024/01/16 06:59:37;;;;;;;9.73;6.00;;;5.40;91.00;;;;;;5008273;28;20069;-82
2024/01/16 07:02:03;;;;;;;7.20;5.32;;;5.40;91.00;;;;;;5005204;28;20045;-82
2024/01/16 07:04:29;;;;;;;9.02;5.82;;;5.40;90.70;;;;;;5022136;28;20022;-82
2024/01/16 07:06:55;;;;;;;10.27;6.55;;;5.40;90.70;;;;;;5024113;28;20036;-82
2024/01/16 07:09:21;;;;;;;9.27;5.93;;;5.40;90.70;;;;;;5017525;28;20025;-82
2024/01/16 07:11:47;;;;;;;7.47;5.03;;;5.40;90.60;;;;;;5026967;28;20036;-81
2024/01/16 07:14:13;;;;;;;9.55;6.32;;;5.40;90.50;;;;;;5023015;28;20030;-82
2024/01/16 07:16:39;;;;;;;7.10;4.75;;;5.50;90.60;;;;;;5020546;28;20518;-82
2024/01/16 07:19:05;;;;;;;7.90;4.00;;;5.50;90.60;;;;;;5019680;28;20087;-82
2024/01/16 07:21:31;;;;;;;9.30;4.30;;;5.60;91.00;;;;;;5022402;28;20041;-83
2024/01/16 07:23:57;;;;;;;5.97;3.95;;;5.70;92.10;;;;;;5031046;28;20535;-83
2024/01/16 07:26:24;;;;;;;7.97;4.88;;;5.80;90.70;;;;;;5036704;28;20038;-82
2024/01/16 07:28:50;;;;;;;8.77;4.18;;;5.80;90.60;;;;;;5024019;28;20046;-83
2024/01/16 07:31:16;;;;;;;5.95;4.25;;;5.80;90.30;;;;;;5023872;28;20029;-83
2024/01/16 07:33:42;;;;;;;6.38;4.15;;;5.80;90.20;;;;;;5034291;28;20030;-83
2024/01/16 07:36:09;;;;;;;5.97;4.25;;;5.80;90.00;;;;;;5013640;28;20037;-83
2024/01/16 07:38:36;;;;;;;5.63;4.03;;;5.80;90.10;;;;;;5021348;28;20100;-83
2024/01/16 07:41:02;;;;;;;4.95;3.72;;;5.80;90.10;;;;;;5011301;28;20041;-83
2024/01/16 07:43:29;;;;;;;4.68;3.53;;;5.80;89.90;;;;;;5035598;28;20414;-82
2024/01/16 07:45:58;;;;;;;4.97;3.80;;;5.80;90.00;;;;;;5030581;28;20097;-86
2024/01/16 07:48:24;;;;;;;7.45;4.13;;;5.80;89.80;;;;;;5033709;28;20041;-86
2024/01/16 07:51:01;;;;;;;6.75;3.63;;;5.80;89.40;;;;;;5020881;28;20025;-87
2024/01/16 07:53:27;;;;;;;4.95;3.53;;;5.80;89.60;;;;;;5019426;28;20538;-87
2024/01/16 07:55:54;;;;;;;6.15;4.28;;;5.80;89.80;;;;;;5028886;28;20071;-87
2024/01/16 07:58:21;;;;;;;5.75;3.83;;;5.90;89.40;;;;;;5034276;28;20463;-87
2024/01/16 08:00:46;;;;;;;5.85;3.92;;;5.90;89.50;;;;;;5000371;28;20061;-86
2024/01/16 08:03:14;;;;;;;6.70;3.92;;;5.90;89.40;;;;;;5011721;28;20477;-86
2024/01/16 08:05:40;;;;;;;6.55;4.18;;;6.00;89.30;;;;;;4996666;28;20041;-87
2024/01/16 08:08:09;;;;;;;5.75;4.07;;;6.00;89.20;;;;;;4996439;28;20022;-84
2024/01/16 08:10:35;;;;;;;5.63;3.83;;;6.10;89.10;;;;;;4996565;28;20030;-85
2024/01/16 08:13:00;;;;;;;4.80;3.30;;;6.10;88.70;;;;;;4996376;28;20736;-84
2024/01/16 08:15:26;;;;;;;6.82;4.45;;;6.10;88.70;;;;;;4996425;28;20509;-84
2024/01/16 08:17:52;;;;;;;6.72;4.00;;;6.20;88.60;;;;;;4996037;28;20440;-84
2024/01/16 08:20:17;;;;;;;7.05;5.00;;;6.20;88.80;;;;;;4978450;28;20342;-85
2024/01/16 08:22:43;;;;;;;6.80;3.97;;;6.30;88.80;;;;;;4996634;28;20113;-84
2024/01/16 08:25:09;;;;;;;5.85;3.78;;;6.20;88.60;;;;;;4996934;28;20105;-85
2024/01/16 08:27:37;;;;;;;6.13;4.15;;;6.30;88.40;;;;;;5011180;28;20163;-84
2024/01/16 08:30:04;;;;;;;6.60;3.85;;;6.30;88.50;;;;;;5011863;28;20025;-85
2024/01/16 08:32:31;;;;;;;8.05;4.70;;;6.30;88.30;;;;;;5016768;28;20117;-85
2024/01/16 08:34:56;;;;;;;5.47;3.28;;;6.40;87.60;;;;;;5008722;28;20018;-85
2024/01/16 08:37:22;;;;;;;6.57;4.78;;;6.40;87.90;;;;;;4996314;28;20037;-84
2024/01/16 08:39:48;;;;;;;6.88;4.60;;;6.50;87.70;;;;;;4979022;28;20504;-85
2024/01/16 08:42:13;;;;;;;5.53;3.67;;;6.50;87.70;;;;;;4996444;28;20042;-85
2024/01/16 08:44:39;;;;;;;5.70;3.65;;;6.60;87.50;;;;;;4989389;28;20143;-84
2024/01/16 08:47:06;;;;;;;5.57;4.00;;;6.60;87.40;;;;;;5001580;28;20034;-82
2024/01/16 08:49:32;;;;;;;5.35;3.63;;;6.70;87.90;;;;;;5014171;28;20112;-81
2024/01/16 08:51:58;;;;;;;5.72;3.30;;;6.80;87.60;;;;;;4987080;28;20025;-81
2024/01/16 08:54:25;;;;;;;6.18;3.92;;;6.90;87.20;;;;;;4998585;28;20486;-82
2024/01/16 08:56:52;;;;;;;7.53;3.45;;;7.10;87.20;;;;;;4995504;28;20121;-81
2024/01/16 08:59:17;;;;;;;7.72;4.45;;;7.20;86.00;;;;;;4989328;28;20053;-81
2024/01/16 09:01:43;;;;;;;7.60;4.55;;;7.30;86.30;;;;;;4996342;28;20158;-81
2024/01/16 09:04:09;;;;;;;7.55;3.92;;;7.40;86.00;;;;;;4999672;28;20026;-81
2024/01/16 09:06:34;;;;;;;5.47;3.53;;;7.60;84.90;;;;;;5007170;28;20041;-81
2024/01/16 09:09:00;;;;;;;8.55;4.30;;;7.70;85.60;;;;;;5010056;28;20117;-80
2024/01/16 09:11:26;;;;;;;6.32;3.63;;;8.00;92.00;;;;;;5012690;28;20054;-80
2024/01/16 09:13:51;;;;;;;6.38;4.32;;;8.30;90.10;;;;;;5007970;28;20484;-81
2024/01/16 09:16:17;;;;;;;7.30;3.92;;;8.40;88.20;;;;;;5007324;28;20038;-81
2024/01/16 09:18:44;;;;;;;6.35;3.70;;;8.50;86.60;;;;;;5000006;28;20110;-81
2024/01/16 09:21:09;;;;;;;6.35;3.67;;;8.50;84.50;;;;;;4994508;28;20030;-81
2024/01/16 09:23:35;;;;;;;5.93;4.22;;;8.40;84.30;;;;;;4995352;28;20042;-81
2024/01/16 09:26:01;;;;;;;12.13;4.00;;;8.40;83.60;;;;;;5008775;28;20041;-80
2024/01/16 09:28:28;;;;;;;5.82;3.50;;;8.50;83.40;;;;;;4999760;28;20125;-81
2024/01/16 09:30:56;;;;;;;7.88;3.80;;;8.50;85.70;;;;;;5006019;28;20097;-81
2024/01/16 09:33:22;;;;;;;7.55;3.55;;;8.50;84.40;;;;;;5009886;28;20057;-83
2024/01/16 09:35:48;;;;;;;5.05;3.25;;;8.60;83.90;;;;;;5006195;28;20033;-84
2024/01/16 09:38:14;;;;;;;3.65;2.92;;;8.60;83.00;;;;;;5008844;28;20081;-82
2024/01/16 09:40:40;;;;;;;5.97;3.92;;;8.70;83.40;;;;;;5000761;28;20054;-82
2024/01/16 09:43:08;;;;;;;6.10;2.90;;;8.70;81.00;;;;;;4997526;28;20384;-82
2024/01/16 09:45:38;;;;;;;3.53;2.58;;;8.70;81.50;;;;;;5001183;28;20023;-82
2024/01/16 09:48:05;;;;;;;4.30;2.60;;;8.70;81.90;;;;;;5004766;28;20538;-83
2024/01/16 09:50:31;;;;;;;4.75;2.60;;;8.80;82.00;;;;;;5011125;28;20034;-85
2024/01/16 09:52:58;;;;;;;6.53;3.42;;;8.90;81.80;;;;;;5012521;28;20689;-86
2024/01/16 09:55:23;;;;;;;4.90;3.13;;;9.00;81.30;;;;;;5019440;28;20022;-85
2024/01/16 09:57:52;;;;;;;4.45;3.13;;;9.10;81.20;;;;;;5016420;28;20032;-86
2024/01/16 10:00:19;;;;;;;5.22;3.42;;;9.30;81.30;;;;;;5016651;28;20049;-86
2024/01/16 10:02:45;;;;;;;4.50;3.03;;;9.40;81.20;;;;;;5025436;28;20029;-86
2024/01/16 10:05:12;;;;;;;5.95;3.05;;;9.50;80.80;;;;;;5036310;28;20036;-86
2024/01/16 10:07:39;;;;;;;5.18;2.70;;;9.60;80.20;;;;;;5020111;28;20038;-86
2024/01/16 10:10:06;;;;;;;5.30;2.92;;;9.70;78.80;;;;;;5027405;28;20109;-86
2024/01/16 10:12:32;;;;;;;3.83;2.78;;;9.70;78.90;;;;;;5032901;28;20021;-86
2024/01/16 10:14:59;;;;;;;5.28;2.78;;;9.70;78.90;;;;;;5039011;28;20077;-86
2024/01/16 10:17:42;;;;;;;3.08;2.42;;;9.80;78.90;;;;;;5035788;28;20033;-84
2024/01/16 10:20:13;;;;;;;3.88;2.60;;;9.80;78.70;;;;;;5023138;28;20045;-84
2024/01/16 10:22:51;;;;;;;5.97;2.55;;;9.90;80.10;;;;;;5027663;28;20116;-85
2024/01/16 10:25:19;;;;;;;3.88;2.35;;;10.00;77.90;;;;;;5017315;28;20087;-90
2024/01/16 10:27:45;;;;;;;4.57;2.55;;;10.10;78.40;;;;;;5029621;28;20049;-89
2024/01/16 10:30:12;;;;;;;4.38;2.53;;;10.20;77.70;;;;;;5035728;28;20056;-87
2024/01/16 10:32:41;;;;;;;2.85;2.17;;;10.40;77.00;;;;;;5008078;28;20399;-87
2024/01/16 10:35:11;;;;;;;3.70;2.47;;;10.60;77.50;;;;;;5027150;28;20171;-86
2024/01/16 10:37:49;;;;;;;3.28;2.35;;;10.70;77.50;;;;;;5039336;28;20364;-96
2024/01/16 10:40:20;;;;;;;6.07;2.70;;;10.90;76.70;;;;;;5012443;28;20044;-85
2024/01/16 10:42:59;;;;;;;3.70;2.30;;;11.10;74.90;;;;;;5036182;28;20038;-86
2024/01/16 10:45:26;;;;;;;2.95;2.05;;;11.20;75.80;;;;;;5003950;28;20091;-87
2024/01/16 10:48:02;;;;;;;4.00;2.72;;;11.20;74.50;;;;;;5021556;28;20472;-88
2024/01/16 10:50:28;;;;;;;5.03;2.33;;;11.30;74.20;;;;;;5010453;28;20062;-87
2024/01/16 10:52:54;;;;;;;2.28;1.77;;;11.40;74.10;;;;;;5036431;28;20022;-88
2024/01/16 10:55:25;;;;;;;3.17;2.10;;;11.40;72.80;;;;;;5024166;28;20030;-88
2024/01/16 10:57:51;;;;;;;1.92;1.45;;;11.40;71.50;;;;;;5003876;28;20026;-88
2024/01/16 11:00:21;;;;;;;2.42;1.60;;;11.30;72.50;;;;;;5016977;28;20057;-88
2024/01/16 11:02:59;;;;;;;2.70;1.80;;;11.30;73.10;;;;;;5014304;28;20022;-88
2024/01/16 11:05:26;;;;;;;2.72;1.75;;;11.30;72.60;;;;;;5023081;28;20068;-88
2024/01/16 11:07:55;;;;;;;8.52;1.50;;;11.30;72.80;;;;;;5017754;28;20023;-88
2024/01/16 11:10:21;;;;;;;2.63;1.90;;;11.20;72.80;;;;;;5017145;28;20021;-87
2024/01/16 11:12:49;;;;;;;2.70;1.70;;;11.10;73.10;;;;;;5019986;28;20129;-88
2024/01/16 11:15:16;;;;;;;3.08;2.10;;;11.00;73.10;;;;;;5021770;28;20046;-89
2024/01/16 11:17:44;;;;;;;3.58;2.13;;;10.90;73.30;;;;;;5018927;28;20451;-89
2024/01/16 11:20:11;;;;;;;3.30;2.22;;;10.80;73.40;;;;;;5037646;28;20029;-89
2024/01/16 11:22:43;;;;;;;3.00;2.22;;;10.70;73.40;;;;;;5026113;28;20043;-89
2024/01/16 11:25:13;;;;;;;3.45;1.83;;;10.70;74.30;;;;;;5013571;28;20029;-89
2024/01/16 11:27:41;;;;;;;2.88;2.20;;;10.70;74.60;;;;;;5021173;28;20014;-88
2024/01/16 11:30:08;;;;;;;3.38;1.73;;;10.70;74.50;;;;;;5037688;28;20542;-89
2024/01/16 11:32:41;;;;;;;2.15;1.42;;;10.60;74.40;;;;;;5037301;28;20022;-89
2024/01/16 11:35:13;;;;;;;5.72;2.78;;;10.60;74.40;;;;;;5025546;28;20105;-89
2024/01/16 11:37:43;;;;;;;4.38;1.67;;;10.50;73.10;;;;;;5027436;28;20095;-89
2024/01/16 11:40:20;;;;;;;2.50;1.50;;;10.40;73.90;;;;;;5026211;28;20026;-87
2024/01/16 11:42:46;;;;;;;2.53;1.60;;;10.40;74.30;;;;;;5036730;28;20491;-89
2024/01/16 11:45:27;;;;;;;1.77;1.63;;;10.40;74.40;;;;;;5033029;28;20075;-88
2024/01/16 11:48:09;;;;;;;2.53;1.60;;;10.50;74.70;;;;;;5023245;28;20104;-89
2024/01/16 11:50:35;;;;;;;3.78;1.85;;;10.60;75.20;;;;;;5004640;28;20026;-88
2024/01/16 11:53:00;;;;;;;9.15;2.47;;;10.80;75.20;;;;;;5030174;28;20044;-88
2024/01/16 11:55:26;;;;;;;4.28;2.45;;;11.40;74.60;;;;;;5036044;28;20372;-89
2024/01/16 12:01:11;;;;;;;3.67;1.88;;;14.00;71.20;;;;;;4701810;26;20063;-89
2024/01/16 12:03:37;;;;;;;1.90;1.13;;;15.70;67.50;;;;;;4942495;29;20032;-89
2024/01/16 12:06:06;;;;;;;2.92;1.45;;;17.00;61.50;;;;;;4959086;29;20034;-89
2024/01/16 12:08:32;;;;;;;3.53;1.92;;;18.30;61.90;;;;;;4957045;29;20051;-89
2024/01/16 12:10:59;;;;;;;2.60;1.70;;;19.30;56.60;;;;;;4958069;29;20035;-89
2024/01/16 12:13:25;;;;;;;2.00;1.40;;;20.10;53.30;;;;;;4958130;29;20019;-89
2024/01/16 12:16:01;;;;;;;3.03;1.90;;;20.90;54.10;;;;;;4957881;29;20047;-90
2024/01/16 12:18:27;;;;;;;4.70;2.38;;;21.60;51.40;;;;;;4957071;29;20088;-89
2024/01/16 12:20:52;;;;;;;1.77;1.42;;;22.10;48.00;;;;;;4956331;29;20441;-89
2024/01/16 12:23:20;;;;;;;2.33;1.55;;;22.50;48.60;;;;;;4956672;29;20035;-89
2024/01/16 12:25:46;;;;;;;3.22;1.40;;;22.50;47.10;;;;;;4957247;29;20031;-89
2024/01/16 12:28:17;;;;;;;2.30;1.80;;;22.40;44.00;;;;;;4957911;29;20038;-89
2024/01/16 12:30:50;;;;;;;3.20;1.80;;;22.50;46.20;;;;;;4957047;29;20082;-90
2024/01/16 12:33:16;;;;;;;4.00;1.58;;;22.70;45.10;;;;;;4956623;29;20035;-89
2024/01/16 12:35:46;;;;;;;2.65;1.40;;;22.40;44.50;;;;;;4958026;29;20027;-89
2024/01/16 12:38:13;;;;;;;2.58;1.58;;;21.80;44.40;;;;;;4955684;29;20046;-88
2024/01/16 12:40:46;;;;;;;2.40;1.45;;;21.30;44.30;;;;;;4957453;29;20042;-88
2024/01/16 12:43:12;;;;;;;2.45;1.40;;;20.70;45.40;;;;;;4958165;29;20031;-88
2024/01/16 12:45:38;;;;;;;7.20;2.30;;;20.30;46.20;;;;;;4956467;28;20034;-89